sensor_id;sensor_type;location;lat;lon;timestamp;temperature;humidity
22035;DHT22;11181;51.002;4.356;2022-11-04T00:01:39;12.00;99.90
22035;DHT22;11181;51.002;4.356;2022-11-04T00:04:07;11.80;99.90
22035;DHT22;11181;51.002;4.356;2022-11-04T00:06:35;11.70;99.90
22035;DHT22;11181;51.002;4.356;2022-11-04T00:09:04;11.70;99.90
22035;DHT22;11181;51.002;4.356;2022-11-04T00:11:31;11.70;99.90
22035;DHT22;11181;51.002;4.356;2022-11-04T00:14:16;11.80;99.90
22035;DHT22;11181;51.002;4.356;2022-11-04T00:16:43;11.80;99.90
22035;DHT22;11181;51.002;4.356;2022-11-04T00:19:28;11.90;99.90
22035;DHT22;11181;51.002;4.356;2022-11-04T00:22:16;11.90;99.90
22035;DHT22;11181;51.002;4.356;2022-11-04T00:25:01;11.80;99.90
22035;DHT22;11181;51.002;4.356;2022-11-04T00:27:45;11.70;99.90
22035;DHT22;11181;51.002;4.356;2022-11-04T00:30:30;11.60;99.90
22035;DHT22;11181;51.002;4.356;2022-11-04T00:32:56;11.60;99.90
22035;DHT22;11181;51.002;4.356;2022-11-04T00:35:47;11.70;99.90
22035;DHT22;11181;51.002;4.356;2022-11-04T00:38:15;11.60;99.90
22035;DHT22;11181;51.002;4.356;2022-11-04T00:40:43;11.60;99.90
22035;DHT22;11181;51.002;4.356;2022-11-04T00:43:10;11.50;99.90
22035;DHT22;11181;51.002;4.356;2022-11-04T00:45:38;11.50;99.90
22035;DHT22;11181;51.002;4.356;2022-11-04T00:48:05;11.50;99.90
22035;DHT22;11181;51.002;4.356;2022-11-04T00:50:32;11.50;99.90
22035;DHT22;11181;51.002;4.356;2022-11-04T00:52:59;11.40;99.90
22035;DHT22;11181;51.002;4.356;2022-11-04T00:55:27;11.20;99.90
22035;DHT22;11181;51.002;4.356;2022-11-04T00:57:54;11.30;99.90
22035;DHT22;11181;51.002;4.356;2022-11-04T01:00:21;11.30;99.90
22035;DHT22;11181;51.002;4.356;2022-11-04T01:02:48;11.40;99.90
22035;DHT22;11181;51.002;4.356;2022-11-04T01:05:15;11.40;99.90
22035;DHT22;11181;51.002;4.356;2022-11-04T01:07:42;11.50;99.90
22035;DHT22;11181;51.002;4.356;2022-11-04T01:10:09;11.40;99.90
22035;DHT22;11181;51.002;4.356;2022-11-04T01:12:38;11.40;99.90
22035;DHT22;11181;51.002;4.356;2022-11-04T01:15:05;11.20;99.90
22035;DHT22;11181;51.002;4.356;2022-11-04T01:17:32;11.30;99.90
22035;DHT22;11181;51.002;4.356;2022-11-04T01:19:59;11.40;99.90
22035;DHT22;11181;51.002;4.356;2022-11-04T01:22:26;11.50;99.90
22035;DHT22;11181;51.002;4.356;2022-11-04T01:24:53;11.50;99.90
22035;DHT22;11181;51.002;4.356;2022-11-04T01:27:20;11.40;99.90
22035;DHT22;11181;51.002;4.356;2022-11-04T01:29:48;11.40;99.90
22035;DHT22;11181;51.002;4.356;2022-11-04T01:32:15;11.40;99.90
22035;DHT22;11181;51.002;4.356;2022-11-04T01:34:42;11.40;99.90
22035;DHT22;11181;51.002;4.356;2022-11-04T01:37:08;11.50;99.90
22035;DHT22;11181;51.002;4.356;2022-11-04T01:39:35;11.50;99.90
22035;DHT22;11181;51.002;4.356;2022-11-04T01:42:02;11.70;99.90
22035;DHT22;11181;51.002;4.356;2022-11-04T01:44:52;11.60;99.90
22035;DHT22;11181;51.002;4.356;2022-11-04T01:47:23;11.60;99.90
22035;DHT22;11181;51.002;4.356;2022-11-04T01:49:53;11.50;99.90
22035;DHT22;11181;51.002;4.356;2022-11-04T01:52:26;11.50;99.90
22035;DHT22;11181;51.002;4.356;2022-11-04T01:54:56;11.60;99.90
22035;DHT22;11181;51.002;4.356;2022-11-04T01:57:27;11.50;99.90
22035;DHT22;11181;51.002;4.356;2022-11-04T02:00:00;11.60;99.90
22035;DHT22;11181;51.002;4.356;2022-11-04T02:02:28;11.70;99.90
22035;DHT22;11181;51.002;4.356;2022-11-04T02:04:55;11.70;99.90
22035;DHT22;11181;51.002;4.356;2022-11-04T02:07:23;11.70;99.90
22035;DHT22;11181;51.002;4.356;2022-11-04T02:09:50;11.60;99.90
22035;DHT22;11181;51.002;4.356;2022-11-04T02:12:17;11.60;99.90
22035;DHT22;11181;51.002;4.356;2022-11-04T02:15:03;11.70;99.90
22035;DHT22;11181;51.002;4.356;2022-11-04T02:17:41;11.60;99.90
22035;DHT22;11181;51.002;4.356;2022-11-04T02:20:37;11.60;99.90
22035;DHT22;11181;51.002;4.356;2022-11-04T02:23:35;11.40;99.90
22035;DHT22;11181;51.002;4.356;2022-11-04T02:29:25;11.20;99.90
22035;DHT22;11181;51.002;4.356;2022-11-04T02:32:02;11.20;99.90
22035;DHT22;11181;51.002;4.356;2022-11-04T02:34:39;11.20;99.90
22035;DHT22;11181;51.002;4.356;2022-11-04T02:37:11;11.10;99.90
22035;DHT22;11181;51.002;4.356;2022-11-04T02:39:49;11.20;99.90
22035;DHT22;11181;51.002;4.356;2022-11-04T02:42:24;11.20;99.90
22035;DHT22;11181;51.002;4.356;2022-11-04T02:44:58;11.30;99.90
22035;DHT22;11181;51.002;4.356;2022-11-04T02:47:29;11.10;99.90
22035;DHT22;11181;51.002;4.356;2022-11-04T02:49:59;11.10;99.90
22035;DHT22;11181;51.002;4.356;2022-11-04T02:52:33;11.00;99.90
22035;DHT22;11181;51.002;4.356;2022-11-04T02:55:06;11.10;99.90
22035;DHT22;11181;51.002;4.356;2022-11-04T02:57:38;11.10;99.90
22035;DHT22;11181;51.002;4.356;2022-11-04T03:00:09;11.10;99.90
22035;DHT22;11181;51.002;4.356;2022-11-04T03:02:39;11.20;99.90
22035;DHT22;11181;51.002;4.356;2022-11-04T03:05:10;11.30;99.90
22035;DHT22;11181;51.002;4.356;2022-11-04T03:07:40;11.40;99.90
22035;DHT22;11181;51.002;4.356;2022-11-04T03:10:12;11.50;99.90
22035;DHT22;11181;51.002;4.356;2022-11-04T03:12:45;11.30;99.90
22035;DHT22;11181;51.002;4.356;2022-11-04T03:15:18;11.30;99.90
22035;DHT22;11181;51.002;4.356;2022-11-04T03:17:51;11.40;99.90
22035;DHT22;11181;51.002;4.356;2022-11-04T03:20:22;11.40;99.90
22035;DHT22;11181;51.002;4.356;2022-11-04T03:22:50;11.40;99.90
22035;DHT22;11181;51.002;4.356;2022-11-04T03:25:22;11.40;99.90
22035;DHT22;11181;51.002;4.356;2022-11-04T03:27:55;11.50;99.90
22035;DHT22;11181;51.002;4.356;2022-11-04T03:30:29;11.50;99.90
22035;DHT22;11181;51.002;4.356;2022-11-04T03:33:05;11.60;99.90
22035;DHT22;11181;51.002;4.356;2022-11-04T03:35:32;11.60;99.90
22035;DHT22;11181;51.002;4.356;2022-11-04T03:37:59;11.60;99.90
22035;DHT22;11181;51.002;4.356;2022-11-04T03:40:27;11.70;99.90
22035;DHT22;11181;51.002;4.356;2022-11-04T03:42:57;11.80;99.90
22035;DHT22;11181;51.002;4.356;2022-11-04T03:45:26;11.90;99.90
22035;DHT22;11181;51.002;4.356;2022-11-04T03:47:55;11.90;99.90
22035;DHT22;11181;51.002;4.356;2022-11-04T03:50:25;11.80;99.90
22035;DHT22;11181;51.002;4.356;2022-11-04T03:52:53;12.00;99.90
22035;DHT22;11181;51.002;4.356;2022-11-04T03:55:21;12.00;99.90
22035;DHT22;11181;51.002;4.356;2022-11-04T03:57:55;12.10;99.90
22035;DHT22;11181;51.002;4.356;2022-11-04T04:00:23;12.10;99.90
22035;DHT22;11181;51.002;4.356;2022-11-04T04:03:04;12.20;99.90
22035;DHT22;11181;51.002;4.356;2022-11-04T04:05:35;12.20;99.90
22035;DHT22;11181;51.002;4.356;2022-11-04T04:08:15;12.20;99.90
22035;DHT22;11181;51.002;4.356;2022-11-04T04:10:53;12.20;99.90
22035;DHT22;11181;51.002;4.356;2022-11-04T04:13:34;12.20;99.90
22035;DHT22;11181;51.002;4.356;2022-11-04T04:16:06;12.40;99.90
22035;DHT22;11181;51.002;4.356;2022-11-04T04:18:39;12.40;99.90
22035;DHT22;11181;51.002;4.356;2022-11-04T04:21:19;12.50;99.90
22035;DHT22;11181;51.002;4.356;2022-11-04T04:23:49;12.60;99.90
22035;DHT22;11181;51.002;4.356;2022-11-04T04:26:36;12.60;99.90
22035;DHT22;11181;51.002;4.356;2022-11-04T04:29:22;12.70;99.90
22035;DHT22;11181;51.002;4.356;2022-11-04T04:31:50;12.70;99.90
22035;DHT22;11181;51.002;4.356;2022-11-04T04:34:25;12.70;99.90
22035;DHT22;11181;51.002;4.356;2022-11-04T04:36:58;12.70;99.90
22035;DHT22;11181;51.002;4.356;2022-11-04T04:39:31;12.60;99.90
22035;DHT22;11181;51.002;4.356;2022-11-04T04:42:17;12.70;99.90
22035;DHT22;11181;51.002;4.356;2022-11-04T04:45:03;12.80;99.90
22035;DHT22;11181;51.002;4.356;2022-11-04T04:47:38;12.80;99.90
22035;DHT22;11181;51.002;4.356;2022-11-04T04:50:08;12.80;99.90
22035;DHT22;11181;51.002;4.356;2022-11-04T04:52:38;12.90;99.90
22035;DHT22;11181;51.002;4.356;2022-11-04T04:55:06;12.90;99.90
22035;DHT22;11181;51.002;4.356;2022-11-04T04:57:33;13.00;99.90
22035;DHT22;11181;51.002;4.356;2022-11-04T05:00:00;13.10;99.90
22035;DHT22;11181;51.002;4.356;2022-11-04T05:02:27;13.20;99.90
22035;DHT22;11181;51.002;4.356;2022-11-04T05:04:54;13.20;99.90
22035;DHT22;11181;51.002;4.356;2022-11-04T05:07:23;13.30;99.90
22035;DHT22;11181;51.002;4.356;2022-11-04T05:09:50;13.30;99.90
22035;DHT22;11181;51.002;4.356;2022-11-04T05:12:17;13.30;99.90
22035;DHT22;11181;51.002;4.356;2022-11-04T05:14:44;13.40;99.90
22035;DHT22;11181;51.002;4.356;2022-11-04T05:17:11;13.40;99.90
22035;DHT22;11181;51.002;4.356;2022-11-04T05:19:39;13.30;99.90
22035;DHT22;11181;51.002;4.356;2022-11-04T05:22:06;13.30;99.90
22035;DHT22;11181;51.002;4.356;2022-11-04T05:24:34;13.30;99.90
22035;DHT22;11181;51.002;4.356;2022-11-04T05:27:01;13.30;99.90
22035;DHT22;11181;51.002;4.356;2022-11-04T05:29:28;13.30;99.90
22035;DHT22;11181;51.002;4.356;2022-11-04T05:31:55;13.40;99.90
22035;DHT22;11181;51.002;4.356;2022-11-04T05:34:22;13.40;99.90
22035;DHT22;11181;51.002;4.356;2022-11-04T05:36:49;13.30;99.90
22035;DHT22;11181;51.002;4.356;2022-11-04T05:39:16;13.30;99.90
22035;DHT22;11181;51.002;4.356;2022-11-04T05:41:44;13.30;99.90
22035;DHT22;11181;51.002;4.356;2022-11-04T05:44:11;13.40;99.90
22035;DHT22;11181;51.002;4.356;2022-11-04T05:46:40;13.40;99.90
22035;DHT22;11181;51.002;4.356;2022-11-04T05:49:08;13.40;99.90
22035;DHT22;11181;51.002;4.356;2022-11-04T05:51:35;13.50;99.90
22035;DHT22;11181;51.002;4.356;2022-11-04T05:54:02;13.50;99.90
22035;DHT22;11181;51.002;4.356;2022-11-04T05:56:29;13.50;99.90
22035;DHT22;11181;51.002;4.356;2022-11-04T05:58:57;13.50;99.90
22035;DHT22;11181;51.002;4.356;2022-11-04T06:01:30;13.60;99.90
22035;DHT22;11181;51.002;4.356;2022-11-04T06:03:58;13.50;99.90
22035;DHT22;11181;51.002;4.356;2022-11-04T06:06:27;13.50;99.90
22035;DHT22;11181;51.002;4.356;2022-11-04T06:08:54;13.50;99.90
22035;DHT22;11181;51.002;4.356;2022-11-04T06:11:22;13.50;99.90
22035;DHT22;11181;51.002;4.356;2022-11-04T06:13:49;13.60;99.90
22035;DHT22;11181;51.002;4.356;2022-11-04T06:16:18;13.50;99.90
22035;DHT22;11181;51.002;4.356;2022-11-04T06:18:45;13.60;99.90
22035;DHT22;11181;51.002;4.356;2022-11-04T06:21:24;13.50;99.90
22035;DHT22;11181;51.002;4.356;2022-11-04T06:23:51;13.40;99.90
22035;DHT22;11181;51.002;4.356;2022-11-04T06:26:19;13.50;99.90
22035;DHT22;11181;51.002;4.356;2022-11-04T06:28:46;13.50;99.90
22035;DHT22;11181;51.002;4.356;2022-11-04T06:31:14;13.60;99.90
22035;DHT22;11181;51.002;4.356;2022-11-04T06:33:43;13.50;99.90
22035;DHT22;11181;51.002;4.356;2022-11-04T06:36:12;13.50;99.90
22035;DHT22;11181;51.002;4.356;2022-11-04T06:38:40;13.40;99.90
22035;DHT22;11181;51.002;4.356;2022-11-04T06:41:10;13.40;99.90
22035;DHT22;11181;51.002;4.356;2022-11-04T06:43:37;13.40;99.90
22035;DHT22;11181;51.002;4.356;2022-11-04T06:46:05;13.40;99.90
22035;DHT22;11181;51.002;4.356;2022-11-04T06:48:32;13.40;99.90
22035;DHT22;11181;51.002;4.356;2022-11-04T06:51:00;13.40;99.90
22035;DHT22;11181;51.002;4.356;2022-11-04T06:53:27;13.40;99.90
22035;DHT22;11181;51.002;4.356;2022-11-04T06:56:01;13.00;99.90
22035;DHT22;11181;51.002;4.356;2022-11-04T06:58:28;12.80;99.90
22035;DHT22;11181;51.002;4.356;2022-11-04T07:00:55;12.90;99.90
22035;DHT22;11181;51.002;4.356;2022-11-04T07:03:22;13.00;99.90
22035;DHT22;11181;51.002;4.356;2022-11-04T07:05:49;13.10;99.90
22035;DHT22;11181;51.002;4.356;2022-11-04T07:08:17;13.20;99.90
22035;DHT22;11181;51.002;4.356;2022-11-04T07:10:44;13.30;99.90
22035;DHT22;11181;51.002;4.356;2022-11-04T07:13:11;13.40;99.90
22035;DHT22;11181;51.002;4.356;2022-11-04T07:15:38;13.40;99.90
22035;DHT22;11181;51.002;4.356;2022-11-04T07:18:05;13.50;99.90
22035;DHT22;11181;51.002;4.356;2022-11-04T07:20:32;13.60;99.90
22035;DHT22;11181;51.002;4.356;2022-11-04T07:22:59;13.60;99.90
22035;DHT22;11181;51.002;4.356;2022-11-04T07:25:28;13.60;99.90
22035;DHT22;11181;51.002;4.356;2022-11-04T07:27:55;13.70;99.90
22035;DHT22;11181;51.002;4.356;2022-11-04T07:30:22;13.70;99.90
22035;DHT22;11181;51.002;4.356;2022-11-04T07:32:49;13.70;99.90
22035;DHT22;11181;51.002;4.356;2022-11-04T07:35:16;13.80;99.90
22035;DHT22;11181;51.002;4.356;2022-11-04T07:37:43;13.80;99.90
22035;DHT22;11181;51.002;4.356;2022-11-04T07:40:11;13.90;99.90
22035;DHT22;11181;51.002;4.356;2022-11-04T07:42:39;13.90;99.90
22035;DHT22;11181;51.002;4.356;2022-11-04T07:45:07;13.90;99.90
22035;DHT22;11181;51.002;4.356;2022-11-04T07:47:34;13.90;99.90
22035;DHT22;11181;51.002;4.356;2022-11-04T07:50:01;13.90;99.90
22035;DHT22;11181;51.002;4.356;2022-11-04T07:52:28;14.00;99.90
22035;DHT22;11181;51.002;4.356;2022-11-04T07:54:55;14.10;99.90
22035;DHT22;11181;51.002;4.356;2022-11-04T07:57:22;14.10;99.90
22035;DHT22;11181;51.002;4.356;2022-11-04T07:59:50;14.10;99.90
22035;DHT22;11181;51.002;4.356;2022-11-04T08:02:17;14.10;99.90
22035;DHT22;11181;51.002;4.356;2022-11-04T08:04:44;14.10;99.90
22035;DHT22;11181;51.002;4.356;2022-11-04T08:07:11;14.00;99.90
22035;DHT22;11181;51.002;4.356;2022-11-04T08:09:38;14.00;99.90
22035;DHT22;11181;51.002;4.356;2022-11-04T08:12:05;14.00;99.90
22035;DHT22;11181;51.002;4.356;2022-11-04T08:14:32;14.00;99.90
22035;DHT22;11181;51.002;4.356;2022-11-04T08:17:01;14.00;99.90
22035;DHT22;11181;51.002;4.356;2022-11-04T08:19:28;14.10;99.90
22035;DHT22;11181;51.002;4.356;2022-11-04T08:21:55;14.20;99.90
22035;DHT22;11181;51.002;4.356;2022-11-04T08:24:23;14.20;99.90
22035;DHT22;11181;51.002;4.356;2022-11-04T08:26:50;14.20;99.90
22035;DHT22;11181;51.002;4.356;2022-11-04T08:29:17;14.30;99.90
22035;DHT22;11181;51.002;4.356;2022-11-04T08:31:44;14.40;99.90
22035;DHT22;11181;51.002;4.356;2022-11-04T08:34:12;14.30;99.90
22035;DHT22;11181;51.002;4.356;2022-11-04T08:36:41;14.40;99.90
22035;DHT22;11181;51.002;4.356;2022-11-04T08:39:09;14.40;99.90
22035;DHT22;11181;51.002;4.356;2022-11-04T08:41:37;14.40;99.90
22035;DHT22;11181;51.002;4.356;2022-11-04T08:44:06;14.60;99.90
22035;DHT22;11181;51.002;4.356;2022-11-04T08:46:35;14.60;99.90
22035;DHT22;11181;51.002;4.356;2022-11-04T08:49:04;14.70;99.90
22035;DHT22;11181;51.002;4.356;2022-11-04T08:51:34;14.70;99.90
22035;DHT22;11181;51.002;4.356;2022-11-04T08:54:03;14.70;99.90
22035;DHT22;11181;51.002;4.356;2022-11-04T08:56:31;14.50;99.90
22035;DHT22;11181;51.002;4.356;2022-11-04T08:58:59;14.10;99.90
22035;DHT22;11181;51.002;4.356;2022-11-04T09:01:28;13.70;99.90
22035;DHT22;11181;51.002;4.356;2022-11-04T09:03:55;13.70;99.90
22035;DHT22;11181;51.002;4.356;2022-11-04T09:06:24;13.80;99.90
22035;DHT22;11181;51.002;4.356;2022-11-04T09:08:52;14.00;99.90
22035;DHT22;11181;51.002;4.356;2022-11-04T09:11:22;14.30;99.90
22035;DHT22;11181;51.002;4.356;2022-11-04T09:13:49;14.50;99.90
22035;DHT22;11181;51.002;4.356;2022-11-04T09:16:16;14.60;99.90
22035;DHT22;11181;51.002;4.356;2022-11-04T09:18:43;14.50;99.90
22035;DHT22;11181;51.002;4.356;2022-11-04T09:21:10;14.60;99.90
22035;DHT22;11181;51.002;4.356;2022-11-04T09:23:38;14.50;99.90
22035;DHT22;11181;51.002;4.356;2022-11-04T09:26:08;14.30;99.90
22035;DHT22;11181;51.002;4.356;2022-11-04T09:28:36;14.00;99.90
22035;DHT22;11181;51.002;4.356;2022-11-04T09:31:07;13.90;99.90
22035;DHT22;11181;51.002;4.356;2022-11-04T09:33:34;14.00;99.90
22035;DHT22;11181;51.002;4.356;2022-11-04T09:36:01;14.20;99.90
22035;DHT22;11181;51.002;4.356;2022-11-04T09:38:28;14.30;99.90
22035;DHT22;11181;51.002;4.356;2022-11-04T09:40:55;14.40;99.90
22035;DHT22;11181;51.002;4.356;2022-11-04T09:43:34;14.60;99.90
22035;DHT22;11181;51.002;4.356;2022-11-04T09:46:03;14.80;99.90
22035;DHT22;11181;51.002;4.356;2022-11-04T09:48:34;14.90;99.90
22035;DHT22;11181;51.002;4.356;2022-11-04T09:51:05;15.00;99.90
22035;DHT22;11181;51.002;4.356;2022-11-04T09:53:37;15.00;99.90
22035;DHT22;11181;51.002;4.356;2022-11-04T09:56:11;15.00;99.90
22035;DHT22;11181;51.002;4.356;2022-11-04T09:58:41;15.10;99.90
22035;DHT22;11181;51.002;4.356;2022-11-04T10:01:18;15.00;99.90
22035;DHT22;11181;51.002;4.356;2022-11-04T10:04:12;14.90;99.90
22035;DHT22;11181;51.002;4.356;2022-11-04T10:06:52;14.70;99.90
22035;DHT22;11181;51.002;4.356;2022-11-04T10:09:33;14.50;99.90
22035;DHT22;11181;51.002;4.356;2022-11-04T10:12:13;14.20;99.90
22035;DHT22;11181;51.002;4.356;2022-11-04T10:15:14;14.00;99.90
22035;DHT22;11181;51.002;4.356;2022-11-04T10:17:58;13.90;99.90
22035;DHT22;11181;51.002;4.356;2022-11-04T10:20:39;14.00;99.90
22035;DHT22;11181;51.002;4.356;2022-11-04T10:23:19;13.90;99.90
22035;DHT22;11181;51.002;4.356;2022-11-04T10:25:48;13.60;99.90
22035;DHT22;11181;51.002;4.356;2022-11-04T10:28:18;13.60;99.90
22035;DHT22;11181;51.002;4.356;2022-11-04T10:30:49;13.50;99.90
22035;DHT22;11181;51.002;4.356;2022-11-04T10:33:23;13.50;99.90
22035;DHT22;11181;51.002;4.356;2022-11-04T10:35:54;13.60;99.90
22035;DHT22;11181;51.002;4.356;2022-11-04T10:38:31;13.70;99.90
22035;DHT22;11181;51.002;4.356;2022-11-04T10:40:59;13.50;99.90
22035;DHT22;11181;51.002;4.356;2022-11-04T10:43:30;13.60;99.90
22035;DHT22;11181;51.002;4.356;2022-11-04T10:46:08;13.90;99.90
22035;DHT22;11181;51.002;4.356;2022-11-04T10:48:42;13.90;99.90
22035;DHT22;11181;51.002;4.356;2022-11-04T10:51:10;14.00;99.90
22035;DHT22;11181;51.002;4.356;2022-11-04T10:53:37;14.10;99.90
22035;DHT22;11181;51.002;4.356;2022-11-04T10:56:10;14.30;99.90
22035;DHT22;11181;51.002;4.356;2022-11-04T10:58:41;14.40;99.90
22035;DHT22;11181;51.002;4.356;2022-11-04T11:01:25;14.60;99.90
22035;DHT22;11181;51.002;4.356;2022-11-04T11:03:53;14.70;99.90
22035;DHT22;11181;51.002;4.356;2022-11-04T11:06:24;14.80;99.90
22035;DHT22;11181;51.002;4.356;2022-11-04T11:08:54;14.70;99.90
22035;DHT22;11181;51.002;4.356;2022-11-04T11:11:37;14.80;99.90
22035;DHT22;11181;51.002;4.356;2022-11-04T11:14:13;14.90;99.90
22035;DHT22;11181;51.002;4.356;2022-11-04T11:16:42;14.90;99.90
22035;DHT22;11181;51.002;4.356;2022-11-04T11:19:18;15.00;99.90
22035;DHT22;11181;51.002;4.356;2022-11-04T11:21:46;15.10;99.90
22035;DHT22;11181;51.002;4.356;2022-11-04T11:24:19;15.20;99.90
22035;DHT22;11181;51.002;4.356;2022-11-04T11:26:47;15.20;99.90
22035;DHT22;11181;51.002;4.356;2022-11-04T11:29:21;15.30;99.90
22035;DHT22;11181;51.002;4.356;2022-11-04T11:31:51;15.30;99.90
22035;DHT22;11181;51.002;4.356;2022-11-04T11:34:21;15.20;99.90
22035;DHT22;11181;51.002;4.356;2022-11-04T11:36:52;15.20;99.90
22035;DHT22;11181;51.002;4.356;2022-11-04T11:39:20;15.20;99.90
22035;DHT22;11181;51.002;4.356;2022-11-04T11:41:51;15.30;99.90
22035;DHT22;11181;51.002;4.356;2022-11-04T11:44:24;15.20;99.90
22035;DHT22;11181;51.002;4.356;2022-11-04T11:46:56;14.50;99.90
22035;DHT22;11181;51.002;4.356;2022-11-04T11:49:25;14.30;99.90
22035;DHT22;11181;51.002;4.356;2022-11-04T11:51:55;14.40;99.90
22035;DHT22;11181;51.002;4.356;2022-11-04T11:54:27;14.50;99.90
22035;DHT22;11181;51.002;4.356;2022-11-04T11:56:59;14.60;99.90
22035;DHT22;11181;51.002;4.356;2022-11-04T11:59:36;14.60;99.90
22035;DHT22;11181;51.002;4.356;2022-11-04T12:02:30;14.50;99.90
22035;DHT22;11181;51.002;4.356;2022-11-04T12:04:59;14.70;99.90
22035;DHT22;11181;51.002;4.356;2022-11-04T12:07:31;14.90;99.90
22035;DHT22;11181;51.002;4.356;2022-11-04T12:10:06;15.00;99.90
22035;DHT22;11181;51.002;4.356;2022-11-04T12:12:49;15.20;99.90
22035;DHT22;11181;51.002;4.356;2022-11-04T12:15:31;15.20;99.90
22035;DHT22;11181;51.002;4.356;2022-11-04T12:18:25;15.20;99.90
22035;DHT22;11181;51.002;4.356;2022-11-04T12:21:01;15.40;99.90
22035;DHT22;11181;51.002;4.356;2022-11-04T12:23:36;15.60;99.90
22035;DHT22;11181;51.002;4.356;2022-11-04T12:26:12;15.80;99.90
22035;DHT22;11181;51.002;4.356;2022-11-04T12:28:52;16.00;99.90
22035;DHT22;11181;51.002;4.356;2022-11-04T12:31:30;16.10;99.90
22035;DHT22;11181;51.002;4.356;2022-11-04T12:34:07;16.30;99.90
22035;DHT22;11181;51.002;4.356;2022-11-04T12:36:48;16.30;99.90
22035;DHT22;11181;51.002;4.356;2022-11-04T12:39:28;16.30;99.90
22035;DHT22;11181;51.002;4.356;2022-11-04T12:42:09;16.20;99.90
22035;DHT22;11181;51.002;4.356;2022-11-04T12:44:39;16.20;99.90
22035;DHT22;11181;51.002;4.356;2022-11-04T12:47:22;16.20;99.90
22035;DHT22;11181;51.002;4.356;2022-11-04T12:50:08;16.00;99.90
22035;DHT22;11181;51.002;4.356;2022-11-04T12:52:50;15.90;99.90
22035;DHT22;11181;51.002;4.356;2022-11-04T12:55:34;15.70;99.90
22035;DHT22;11181;51.002;4.356;2022-11-04T12:58:15;15.30;99.90
22035;DHT22;11181;51.002;4.356;2022-11-04T13:00:48;14.90;99.90
22035;DHT22;11181;51.002;4.356;2022-11-04T13:03:20;14.60;99.90
22035;DHT22;11181;51.002;4.356;2022-11-04T13:05:52;14.50;99.90
22035;DHT22;11181;51.002;4.356;2022-11-04T13:08:23;14.30;99.90
22035;DHT22;11181;51.002;4.356;2022-11-04T13:10:56;14.10;99.90
22035;DHT22;11181;51.002;4.356;2022-11-04T13:13:28;14.10;99.90
22035;DHT22;11181;51.002;4.356;2022-11-04T13:15:57;14.20;99.90
22035;DHT22;11181;51.002;4.356;2022-11-04T13:18:29;14.40;99.90
22035;DHT22;11181;51.002;4.356;2022-11-04T13:21:01;14.60;99.90
22035;DHT22;11181;51.002;4.356;2022-11-04T13:23:35;14.50;99.90
22035;DHT22;11181;51.002;4.356;2022-11-04T13:26:08;14.60;99.90
22035;DHT22;11181;51.002;4.356;2022-11-04T13:28:36;14.60;99.90
22035;DHT22;11181;51.002;4.356;2022-11-04T13:31:11;14.80;99.90
22035;DHT22;11181;51.002;4.356;2022-11-04T13:33:46;14.90;99.90
22035;DHT22;11181;51.002;4.356;2022-11-04T13:36:27;15.00;99.90
22035;DHT22;11181;51.002;4.356;2022-11-04T13:38:59;14.70;99.90
22035;DHT22;11181;51.002;4.356;2022-11-04T13:41:54;14.80;99.90
22035;DHT22;11181;51.002;4.356;2022-11-04T13:44:25;14.70;99.90
22035;DHT22;11181;51.002;4.356;2022-11-04T13:46:55;14.80;99.90
22035;DHT22;11181;51.002;4.356;2022-11-04T13:49:24;15.00;99.90
22035;DHT22;11181;51.002;4.356;2022-11-04T13:52:04;15.10;99.90
22035;DHT22;11181;51.002;4.356;2022-11-04T13:54:37;15.30;99.90
22035;DHT22;11181;51.002;4.356;2022-11-04T13:57:09;15.40;99.90
22035;DHT22;11181;51.002;4.356;2022-11-04T13:59:37;15.00;99.90
22035;DHT22;11181;51.002;4.356;2022-11-04T14:08:18;14.20;99.90
22035;DHT22;11181;51.002;4.356;2022-11-04T14:11:03;13.60;99.90
22035;DHT22;11181;51.002;4.356;2022-11-04T14:14:02;13.20;99.90
22035;DHT22;11181;51.002;4.356;2022-11-04T14:16:44;13.30;99.90
22035;DHT22;11181;51.002;4.356;2022-11-04T14:22:46;13.40;99.90
22035;DHT22;11181;51.002;4.356;2022-11-04T14:25:30;13.60;99.90
22035;DHT22;11181;51.002;4.356;2022-11-04T14:27:59;13.80;99.90
22035;DHT22;11181;51.002;4.356;2022-11-04T14:30:42;13.70;99.90
22035;DHT22;11181;51.002;4.356;2022-11-04T14:36:23;13.80;99.90
22035;DHT22;11181;51.002;4.356;2022-11-04T14:38:52;13.70;99.90
22035;DHT22;11181;51.002;4.356;2022-11-04T14:41:28;13.80;99.90
22035;DHT22;11181;51.002;4.356;2022-11-04T14:43:58;13.70;99.90
22035;DHT22;11181;51.002;4.356;2022-11-04T14:46:30;13.40;99.90
22035;DHT22;11181;51.002;4.356;2022-11-04T14:48:58;13.00;99.90
22035;DHT22;11181;51.002;4.356;2022-11-04T14:51:28;13.20;99.90
22035;DHT22;11181;51.002;4.356;2022-11-04T14:54:01;13.20;99.90
22035;DHT22;11181;51.002;4.356;2022-11-04T14:56:31;13.50;99.90
22035;DHT22;11181;51.002;4.356;2022-11-04T14:59:02;13.70;99.90
22035;DHT22;11181;51.002;4.356;2022-11-04T15:01:31;13.70;99.90
22035;DHT22;11181;51.002;4.356;2022-11-04T15:04:04;13.70;99.90
22035;DHT22;11181;51.002;4.356;2022-11-04T15:06:31;13.50;99.90
22035;DHT22;11181;51.002;4.356;2022-11-04T15:08:58;13.30;99.90
22035;DHT22;11181;51.002;4.356;2022-11-04T15:11:27;13.30;99.90
22035;DHT22;11181;51.002;4.356;2022-11-04T15:14:16;13.00;99.90
22035;DHT22;11181;51.002;4.356;2022-11-04T15:16:47;13.10;99.90
22035;DHT22;11181;51.002;4.356;2022-11-04T15:19:21;13.30;99.90
22035;DHT22;11181;51.002;4.356;2022-11-04T15:21:50;13.60;99.90
22035;DHT22;11181;51.002;4.356;2022-11-04T15:24:17;13.80;99.90
22035;DHT22;11181;51.002;4.356;2022-11-04T15:26:49;14.00;99.90
22035;DHT22;11181;51.002;4.356;2022-11-04T15:29:20;14.10;99.90
22035;DHT22;11181;51.002;4.356;2022-11-04T15:31:53;14.20;99.90
22035;DHT22;11181;51.002;4.356;2022-11-04T15:34:20;14.30;99.90
22035;DHT22;11181;51.002;4.356;2022-11-04T15:36:48;14.40;99.90
22035;DHT22;11181;51.002;4.356;2022-11-04T15:39:18;14.30;99.90
22035;DHT22;11181;51.002;4.356;2022-11-04T15:41:47;14.40;99.90
22035;DHT22;11181;51.002;4.356;2022-11-04T15:44:35;14.30;99.90
22035;DHT22;11181;51.002;4.356;2022-11-04T15:47:20;14.30;99.90
22035;DHT22;11181;51.002;4.356;2022-11-04T15:49:49;14.20;99.90
22035;DHT22;11181;51.002;4.356;2022-11-04T15:52:19;14.10;99.90
22035;DHT22;11181;51.002;4.356;2022-11-04T15:54:48;14.10;99.90
22035;DHT22;11181;51.002;4.356;2022-11-04T15:57:18;13.90;99.90
22035;DHT22;11181;51.002;4.356;2022-11-04T15:59:49;13.90;99.90
22035;DHT22;11181;51.002;4.356;2022-11-04T16:02:24;13.80;99.90
22035;DHT22;11181;51.002;4.356;2022-11-04T16:05:15;13.60;99.90
22035;DHT22;11181;51.002;4.356;2022-11-04T16:07:47;13.60;99.90
22035;DHT22;11181;51.002;4.356;2022-11-04T16:10:26;13.80;99.90
22035;DHT22;11181;51.002;4.356;2022-11-04T16:12:55;13.90;99.90
22035;DHT22;11181;51.002;4.356;2022-11-04T16:15:32;13.90;99.90